Historyczne dane pomiarowe

Dodano dane terminowe – wersja testowa.

Dane z okresu 1951-2019

Wersja bazy: 1.34 [2019-03-16, lista zmian], aktualizacja planowana na 2019-04-15

Dane meteo z obszaru Polski uzyskane na podstawie danych udostępnionych przez Instytut Meteorologii i Gospodarki Wodnej – Państwowy Instytut Badawczy.

 

Wybierz Datę:    

       

TemperaturaWilgotnośćWiatrCiśnienieOpadyŚniegCzas trwania zjawisk
 Stacja t tx tn tng RH VA  wxwx mslp ppp RRR   cm mm wxwxwxwxwxwxwx
1966-03-18 1.3 4.6 -1.0- 95.0- 8.0 3.7---- 0.0------------
1966-03-19 -1.5 2.5 -3.0- 77.0- 2.0 5.3---- 0.0------------
1966-03-20 2.1 5.5 -4.6- 58.8- 7.0 9.3---- 0.0------------
1966-03-21 3.5 4.3 1.9- 90.0- 7.3 7.7---- 1.1------------
1966-03-22 2.9 5.4 0.9- 82.5- 5.0 12.0---- 3.1------------
1966-03-23 3.4 6.0 1.9- 87.5- 8.0 4.3---- 0.0------------
1966-03-24 2.5 5.8 0.2- 80.0- 7.7 5.7---- 3.2------------
1966-03-25 -0.3 3.7 -3.0- 83.3- 4.0 5.0---- 4.4------------
1966-03-26 -1.6 1.8 -3.6- 88.8- 4.3 4.7---- 2.4-- 6---------
1966-03-27 2.5 4.4 -4.9- 82.5- 5.7 8.3---- 4.1-- 5---------
1966-03-28 3.4 7.0 1.2- 86.0- 8.0 8.3---- 4.2------------
1966-03-29 0.8 4.5 -0.3- 93.0- 5.3 3.7---- 6.0------------
1966-03-30 1.3 3.2 -0.1- 85.8- 8.0 3.3---- 0.0-- 2---------
1966-03-31 3.1 5.8 -0.6- 86.3- 8.0 4.0---- 0.1------------
1966-04-01 4.8 9.7 2.9- 84.8- 5.0 2.0---- 0.0------------
1966-04-02 5.8 12.3 -0.3- 78.3- 0.3 1.7---- 0.0------------
1966-04-03 5.9 9.9 2.8- 79.3- 4.7 1.3---- 0.0------------
1966-04-04 5.9 10.8 -1.1- 80.5- 4.7 1.0---- 0.0------------
1966-04-05 7.4 13.5 0.9- 81.8- 5.7 1.3---- 0.2------------
1966-04-06 4.9 12.5 1.6- 74.8- 7.7 2.0---- 0.0------------
1966-04-07 2.9 4.4 1.4- 90.0- 8.0 1.7---- 1.2------------
1966-04-08 1.8 4.9 -0.1- 92.5- 8.0 2.7---- 0.0------------
1966-04-09 4.6 7.9 -0.6- 93.8- 8.0 3.7---- 0.4------------
1966-04-10 3.5 7.3 1.2- 96.0- 8.0 4.0---- 0.0------------
1966-04-11 1.1 1.7 0.5- 95.0- 8.0 8.0---- 1.5------------
1966-04-12 -0.7 1.0 -1.3- 94.8- 8.0 5.3---- 0.1------------
1966-04-13 -1.3 -0.5 -2.6- 84.8- 8.0 5.7---- 1.2------------
1966-04-14 -0.4 3.1 -3.2- 94.8- 8.0 4.3---- 1.9------------
1966-04-15 -0.5 0.9 -1.6- 86.0- 8.0 2.3---- 0.0------------
1966-04-16 -0.9 1.1 -2.1- 83.5- 5.3 3.7---- 0.0------------
222.1 ms

 

Źródłem pochodzenia danych jest Instytut Meteorologii i Gospodarki Wodnej – Państwowy Instytut Badawczy. Dane Instytutu Meteorologii i Gospodarki Wodnej – Państwowego Instytutu Badawczego zostały przetworzone.

Dane źródłowe można odnaleźć na stronie https://dane.imgw.pl